Time;durP1;ratioP1;P1;durP2;ratioP2;P2;SDS_P1;SDS_P2;PMS_P1;PMS_P2;Temp;Humidity;BMP_temperature;BMP_pressure;BME280_temperature;BME280_humidity;BME280_pressure;Samples;Min_cycle;Max_cycle;Signal;HPM_P1;HPM_P2
2021/10/30 00:00:36;;;;;;;;;;;;;;;29.15;71.38;101196.44;5019761;28;69740;-34
2021/10/30 00:03:06;;;;;;;;;;;;;;;29.18;71.35;101202.25;5022067;28;66011;-35
2021/10/30 00:05:39;;;;;;;;;;;;;;;29.22;71.38;101208.09;5009060;28;70723;-42
2021/10/30 00:08:10;;;;;;;;;;;;;;;29.24;71.86;101206.03;5005384;28;66087;-35
2021/10/30 00:10:40;;;;;;;;;;;;;;;29.26;71.78;101220.19;5017802;28;69586;-35
2021/10/30 00:13:11;;;;;;;;;;;;;;;29.28;71.82;101223.53;5011385;28;66066;-34
2021/10/30 00:15:42;;;;;;;;;;;;;;;29.23;72.35;101220.59;5014340;28;68993;-34
2021/10/30 00:18:12;;;;;;;;;;;;;;;29.30;72.47;101234.94;5016424;28;66204;-35
2021/10/30 00:20:43;;;;;;;;;;;;;;;29.32;72.47;101238.28;5017149;28;69997;-41
2021/10/30 00:23:14;;;;;;;;;;;;;;;29.32;72.20;101240.97;4992245;28;64994;-35
2021/10/30 00:25:44;;;;;;;;;;;;;;;29.19;72.57;101213.91;5017464;28;69816;-34
2021/10/30 00:28:14;;;;;;;;;;;;;;;29.34;72.66;101238.91;5016482;28;66078;-35
2021/10/30 00:30:45;;;;;;;;;;;;;;;29.35;72.83;101243.28;5017064;28;69975;-34
2021/10/30 00:33:15;;;;;;;;;;;;;;;29.37;72.65;101245.78;5017431;28;66400;-35
2021/10/30 00:35:45;;;;;;;;;;;;;;;29.38;72.40;101245.56;5018248;28;68888;-35
2021/10/30 00:38:16;;;;;;;;;;;;;;;29.39;72.55;101247.25;5017579;28;66244;-35
2021/10/30 00:40:46;;;;;;;;;;;;;;;29.40;72.95;101254.31;5004500;28;70449;-35
2021/10/30 00:43:17;;;;;;;;;;;;;;;29.42;72.44;101255.97;5007400;28;66420;-35
2021/10/30 00:45:48;;;;;;;;;;;;;;;29.43;72.95;101254.97;5018527;28;70398;-35
2021/10/30 00:48:18;;;;;;;;;;;;;;;29.45;72.67;101247.47;5013841;28;67867;-35
2021/10/30 00:50:48;;;;;;;;;;;;;;;29.45;72.44;101244.75;5022654;28;68922;-35
2021/10/30 00:53:19;;;;;;;;;;;;;;;29.45;72.39;101250.16;5021193;28;65937;-35
2021/10/30 00:55:50;;;;;;;;;;;;;;;29.47;72.43;101248.09;5021008;28;70180;-35
2021/10/30 00:58:21;;;;;;;;;;;;;;;29.48;72.87;101260.59;5017186;28;66003;-35
2021/10/30 01:00:53;;;;;;;;;;;;;;;29.49;72.82;101262.25;5021867;28;68852;-35
2021/10/30 01:03:25;;;;;;;;;;;;;;;29.51;72.28;101265.59;5015313;28;66439;-35
2021/10/30 01:05:55;;;;;;;;;;;;;;;29.51;72.46;101271.00;5009433;28;70078;-35
2021/10/30 01:08:26;;;;;;;;;;;;;;;29.48;72.45;101258.72;5016931;28;66529;-35
2021/10/30 01:10:57;;;;;;;;;;;;;;;29.52;72.38;101269.97;5028178;28;70380;-35
2021/10/30 01:13:28;;;;;;;;;;;;;;;29.53;72.81;101268.91;5020486;28;65905;-35
2021/10/30 01:15:59;;;;;;;;;;;;;;;29.54;72.91;101270.59;5003738;28;70577;-35
2021/10/30 01:18:29;;;;;;;;;;;;;;;29.57;73.08;101264.78;5002847;28;66326;-35
2021/10/30 01:21:00;;;;;;;;;;;;;;;29.53;72.77;101271.63;5020931;28;67934;-36
2021/10/30 01:23:31;;;;;;;;;;;;;;;29.49;72.76;101263.09;5016732;28;66153;-36
2021/10/30 01:26:02;;;;;;;;;;;;;;;29.44;72.89;101253.91;5022082;28;69980;-36
2021/10/30 01:28:37;;;;;;;;;;;;;;;29.40;72.86;101254.31;5020598;28;67386;-36
2021/10/30 01:31:08;;;;;;;;;;;;;;;29.38;72.46;101255.56;5024666;28;69788;-36
2021/10/30 01:33:40;;;;;;;;;;;;;;;29.34;72.67;101255.13;5004888;28;66315;-37
2021/10/30 01:36:10;;;;;;;;;;;;;;;29.36;72.85;101263.88;5013476;28;70004;-37
2021/10/30 01:38:40;;;;;;;;;;;;;;;29.40;72.97;101262.44;5018420;28;66242;-34
2021/10/30 01:41:11;;;;;;;;;;;;;;;29.44;72.76;101260.16;5016876;28;70021;-35
2021/10/30 01:43:41;;;;;;;;;;;;;;;29.46;72.79;101262.66;5010084;28;65559;-36
2021/10/30 01:46:13;;;;;;;;;;;;;;;29.51;73.25;101263.72;5009964;28;69390;-36
2021/10/30 01:48:44;;;;;;;;;;;;;;;29.60;72.34;101253.56;5011225;28;66601;-36
2021/10/30 01:51:16;;;;;;;;;;;;;;;29.60;72.17;101258.97;5007515;28;70199;-36
2021/10/30 01:53:46;;;;;;;;;;;;;;;29.66;72.11;101266.28;5009710;28;66650;-36
2021/10/30 01:56:17;;;;;;;;;;;;;;;29.67;71.83;101269.81;5008105;28;69912;-36
2021/10/30 01:58:48;;;;;;;;;;;;;;;29.67;71.96;101273.38;5002195;28;65589;-36
2021/10/30 02:01:19;;;;;;;;;;;;;;;29.74;72.16;101270.69;5011465;28;70565;-36
2021/10/30 02:03:49;;;;;;;;;;;;;;;29.79;71.62;101269.06;5010770;28;65906;-36
2021/10/30 02:06:22;;;;;;;;;;;;;;;29.87;71.93;101289.69;5005401;28;69989;-35
2021/10/30 02:08:53;;;;;;;;;;;;;;;29.90;71.37;101280.31;5007624;28;65631;-36
2021/10/30 02:11:23;;;;;;;;;;;;;;;29.95;71.27;101277.81;5009140;28;70681;-35
2021/10/30 02:13:54;;;;;;;;;;;;;;;30.00;70.96;101278.03;5010225;28;66226;-35
2021/10/30 02:16:25;;;;;;;;;;;;;;;30.07;69.51;101276.19;5013857;28;69784;-35
2021/10/30 02:18:55;;;;;;;;;;;;;;;30.10;69.63;101280.34;5006219;28;65599;-36
2021/10/30 02:21:25;;;;;;;;;;;;;;;30.12;69.41;101281.81;5007264;28;70103;-35
2021/10/30 02:23:57;;;;;;;;;;;;;;;30.16;69.18;101280.34;5017098;28;67438;-35
2021/10/30 02:26:27;;;;;;;;;;;;;;;30.18;68.94;101277.47;5014669;28;69408;-36
2021/10/30 02:28:57;;;;;;;;;;;;;;;30.15;68.59;101277.88;5010006;28;65247;-35
2021/10/30 02:31:28;;;;;;;;;;;;;;;30.20;69.09;101275.34;5014416;28;70644;-34
2021/10/30 02:33:58;;;;;;;;;;;;;;;30.27;69.11;101274.38;5012032;28;67050;-35
2021/10/30 02:36:28;;;;;;;;;;;;;;;30.32;68.70;101279.16;5030368;28;69814;-33
2021/10/30 02:39:02;;;;;;;;;;;;;;;30.33;68.38;101271.88;5016004;28;65828;-34
2021/10/30 02:41:33;;;;;;;;;;;;;;;30.35;69.06;101267.09;5012966;28;69430;-35
2021/10/30 02:44:04;;;;;;;;;;;;;;;30.35;68.98;101258.97;5016975;28;65749;-35
2021/10/30 02:46:35;;;;;;;;;;;;;;;30.38;68.91;101255.84;5016626;28;70540;-33
2021/10/30 02:49:06;;;;;;;;;;;;;;;30.46;67.92;101264.59;5013328;28;66285;-33
2021/10/30 02:51:37;;;;;;;;;;;;;;;30.50;68.19;101259.59;5017189;28;70474;-36
2021/10/30 02:54:07;;;;;;;;;;;;;;;30.55;68.12;101254.38;5017572;28;66408;-36
2021/10/30 02:56:38;;;;;;;;;;;;;;;30.66;67.73;101256.44;5013300;28;70569;-35
2021/10/30 02:59:08;;;;;;;;;;;;;;;30.70;66.99;101255.00;5025440;28;66774;-36
2021/10/30 03:01:38;;;;;;;;;;;;;;;30.73;66.71;101249.16;5017056;28;71534;-36
2021/10/30 03:04:09;;;;;;;;;;;;;;;30.85;66.21;101245.84;5018168;28;66992;-35
2021/10/30 03:06:39;;;;;;;;;;;;;;;30.86;66.61;101244.78;5019643;28;70509;-36
2021/10/30 03:09:10;;;;;;;;;;;;;;;30.90;66.32;101240.63;5014806;28;66076;-34
2021/10/30 03:11:41;;;;;;;;;;;;;;;31.02;65.95;101236.22;5016435;28;69512;-35
2021/10/30 03:14:11;;;;;;;;;;;;;;;30.92;66.67;101214.13;5014088;28;66586;-35
2021/10/30 03:16:42;;;;;;;;;;;;;;;31.10;65.62;101224.31;5014272;28;70865;-36
2021/10/30 03:19:13;;;;;;;;;;;;;;;31.09;65.54;101226.19;4997892;28;67418;-35
2021/10/30 03:21:43;;;;;;;;;;;;;;;31.12;65.66;101225.75;5016027;28;70074;-35
2021/10/30 03:24:18;;;;;;;;;;;;;;;31.14;65.06;101228.25;5013451;28;65829;-36
2021/10/30 03:26:48;;;;;;;;;;;;;;;31.16;64.52;101218.84;5017859;28;70366;-36
2021/10/30 03:29:19;;;;;;;;;;;;;;;31.24;63.93;101223.22;4995249;28;66885;-35
2021/10/30 03:31:49;;;;;;;;;;;;;;;31.26;63.54;101220.28;5014675;28;70268;-36
2021/10/30 03:34:21;;;;;;;;;;;;;;;31.23;65.39;101216.13;5017128;28;66531;-35
2021/10/30 03:36:52;;;;;;;;;;;;;;;31.16;65.59;101216.16;5018347;28;69925;-35
2021/10/30 03:39:23;;;;;;;;;;;;;;;31.12;66.71;101212.22;5014665;28;67032;-35
2021/10/30 03:41:53;;;;;;;;;;;;;;;31.09;66.81;101203.66;5013894;28;70319;-35
2021/10/30 03:44:23;;;;;;;;;;;;;;;31.07;66.82;101203.88;5011155;28;65390;-34
2021/10/30 03:46:54;;;;;;;;;;;;;;;31.07;67.20;101201.19;5014617;28;71379;-35
2021/10/30 03:49:25;;;;;;;;;;;;;;;31.03;67.20;101188.28;5015091;28;67278;-34
2021/10/30 03:51:56;;;;;;;;;;;;;;;31.04;67.53;101188.06;5013295;28;69961;-35
2021/10/30 03:54:26;;;;;;;;;;;;;;;31.04;67.45;101181.81;5011871;28;67017;-36
2021/10/30 03:56:57;;;;;;;;;;;;;;;31.04;67.12;101179.94;5008059;28;69345;-35
2021/10/30 03:59:28;;;;;;;;;;;;;;;31.02;67.08;101165.75;5015842;28;66462;-35
2021/10/30 04:02:02;;;;;;;;;;;;;;;31.04;67.28;101163.69;4997044;28;70369;-36
2021/10/30 04:04:33;;;;;;;;;;;;;;;31.06;67.39;101166.16;5010560;28;65616;-35
2021/10/30 04:07:04;;;;;;;;;;;;;;;31.06;66.78;101150.72;4993387;28;70457;-35
2021/10/30 04:09:35;;;;;;;;;;;;;;;31.08;67.05;101143.22;4997801;28;66478;-35
2021/10/30 04:12:05;;;;;;;;;;;;;;;31.14;66.01;101136.94;5013809;28;70174;-35
2021/10/30 04:14:36;;;;;;;;;;;;;;;31.20;65.61;101137.13;5011995;28;66347;-35
2021/10/30 04:17:07;;;;;;;;;;;;;;;31.21;65.30;101125.25;5009571;28;70215;-35
2021/10/30 04:19:37;;;;;;;;;;;;;;;31.23;65.33;101124.00;5012674;28;66309;-35
2021/10/30 04:22:08;;;;;;;;;;;;;;;31.27;64.70;101121.66;4986633;28;70165;-35
2021/10/30 04:24:39;;;;;;;;;;;;;;;31.30;64.52;101118.53;5003651;28;66347;-34
2021/10/30 04:27:09;;;;;;;;;;;;;;;31.33;63.07;101104.53;5009824;28;70394;-35
2021/10/30 04:29:39;;;;;;;;;;;;;;;31.18;61.54;101047.94;5009090;28;66679;-34
2021/10/30 04:32:12;;;;;;;;;;;;;;;31.54;61.96;101093.38;5006812;28;69834;-34
2021/10/30 04:34:52;;;;;;;;;;;;;;;31.50;63.34;101086.72;5008104;28;66249;-34
2021/10/30 04:37:22;;;;;;;;;;;;;;;31.37;63.24;101073.25;5009520;28;70587;-35
2021/10/30 04:39:54;;;;;;;;;;;;;;;31.43;64.18;101080.53;5006188;28;65574;-36
2021/10/30 04:42:24;;;;;;;;;;;;;;;31.37;65.04;101065.13;5002428;28;69800;-35
2021/10/30 04:44:59;;;;;;;;;;;;;;;31.35;63.19;101067.22;4984586;28;65606;-35
2021/10/30 04:47:30;;;;;;;;;;;;;;;31.22;62.44;101051.84;5012258;28;69427;-35
2021/10/30 04:50:02;;;;;;;;;;;;;;;31.22;61.53;101062.69;5009813;28;66587;-34
2021/10/30 04:52:33;;;;;;;;;;;;;;;31.19;60.57;101037.91;5005417;28;69462;-35
2021/10/30 04:55:05;;;;;;;;;;;;;;;31.16;59.41;101040.00;5007713;28;65693;-35
2021/10/30 04:57:35;;;;;;;;;;;;;;;31.09;59.34;101036.53;5006673;28;70442;-35
2021/10/30 05:00:06;;;;;;;;;;;;;;;31.05;59.14;101034.47;5013712;28;66531;-33
2021/10/30 05:02:36;;;;;;;;;;;;;;;30.99;59.08;101025.31;5007855;28;70011;-35
2021/10/30 05:05:07;;;;;;;;;;;;;;;30.97;58.89;101029.31;5007428;28;65651;-35
2021/10/30 05:07:38;;;;;;;;;;;;;;;30.96;58.05;101025.75;5008317;28;71099;-35
2021/10/30 05:10:09;;;;;;;;;;;;;;;30.97;57.48;101022.00;5011574;28;66082;-35
2021/10/30 05:12:39;;;;;;;;;;;;;;;30.91;56.54;101012.03;5010034;28;69727;-36
2021/10/30 05:15:10;;;;;;;;;;;;;;;30.88;56.41;101002.47;5011557;28;65581;-35
2021/10/30 05:17:41;;;;;;;;;;;;;;;30.76;55.69;101008.75;5011328;28;69944;-35
2021/10/30 05:20:12;;;;;;;;;;;;;;;30.67;55.61;101000.91;5009352;28;66394;-35
2021/10/30 05:22:42;;;;;;;;;;;;;;;30.61;55.88;101007.16;5010289;28;70928;-35
2021/10/30 05:25:13;;;;;;;;;;;;;;;30.56;55.22;100989.91;5004999;28;65774;-34
2021/10/30 05:27:43;;;;;;;;;;;;;;;30.48;55.73;100982.88;5012690;28;69998;-37
2021/10/30 05:30:14;;;;;;;;;;;;;;;30.47;54.88;100982.03;5010114;28;66269;-34
2021/10/30 05:32:44;;;;;;;;;;;;;;;30.43;54.81;100980.81;5004689;28;70343;-36
2021/10/30 05:35:38;;;;;;;;;;;;;;;30.41;55.10;100984.75;5006854;28;66438;-34
2021/10/30 05:38:46;;;;;;;;;;;;;;;30.40;54.67;100967.69;5004385;28;69992;-35
2021/10/30 05:41:18;;;;;;;;;;;;;;;30.39;53.78;100959.78;5003898;28;65425;-35
2021/10/30 05:43:49;;;;;;;;;;;;;;;30.38;53.23;100953.53;5013315;28;69851;-35
2021/10/30 05:46:19;;;;;;;;;;;;;;;30.38;52.99;100960.84;5012201;28;65872;-35
2021/10/30 05:48:52;;;;;;;;;;;;;;;30.37;53.12;100951.03;5012955;28;69807;-35
2021/10/30 05:51:23;;;;;;;;;;;;;;;30.37;52.28;100945.63;5014288;28;65864;-35
2021/10/30 05:53:53;;;;;;;;;;;;;;;30.35;51.88;100942.34;5014817;28;70592;-35
2021/10/30 05:56:25;;;;;;;;;;;;;;;30.34;51.41;100927.97;5012687;28;67241;-35
2021/10/30 05:58:56;;;;;;;;;;;;;;;30.35;51.65;100926.09;5012063;28;70423;-35
2021/10/30 06:01:28;;;;;;;;;;;;;;;30.36;51.37;100916.91;5016560;28;66645;-35
2021/10/30 06:04:01;;;;;;;;;;;;;;;30.37;51.13;100910.44;5012084;28;69130;-35
2021/10/30 06:06:32;;;;;;;;;;;;;;;30.33;50.25;100907.34;5016054;28;67005;-35
2021/10/30 06:09:03;;;;;;;;;;;;;;;30.35;49.84;100901.75;5006633;28;69814;-35
2021/10/30 06:11:34;;;;;;;;;;;;;;;30.33;49.71;100895.69;5014966;28;68060;-35
2021/10/30 06:14:09;;;;;;;;;;;;;;;30.35;50.21;100893.63;5015345;28;69934;-35
2021/10/30 06:16:40;;;;;;;;;;;;;;;30.38;49.65;100887.78;5012825;28;66942;-35
2021/10/30 06:19:11;;;;;;;;;;;;;;;30.40;49.67;100891.09;5011914;28;70199;-35
2021/10/30 08:39:20;;;;;;;;;;;;;;;31.31;60.73;100789.50;5012397;28;66817;-36
2021/10/30 08:41:52;;;;;;;;;;;;;;;31.37;61.27;100788.63;5008766;28;69644;-36
2021/10/30 08:44:22;;;;;;;;;;;;;;;31.42;62.15;100785.25;5018263;28;65233;-37
2021/10/30 08:46:55;;;;;;;;;;;;;;;31.47;62.19;100783.53;5011576;28;69422;-37
2021/10/30 08:49:28;;;;;;;;;;;;;;;31.53;62.26;100779.06;5014625;28;66914;-37
2021/10/30 08:51:58;;;;;;;;;;;;;;;31.56;62.68;100778.63;5015311;28;69882;-37
2021/10/30 08:54:29;;;;;;;;;;;;;;;31.59;62.73;100773.59;5013281;28;66749;-38
2021/10/30 08:57:00;;;;;;;;;;;;;;;31.63;63.52;100770.41;5013045;28;69345;-38
2021/10/30 08:59:37;;;;;;;;;;;;;;;31.65;63.12;100779.13;5012174;28;66618;-37
2021/10/30 09:02:29;;;;;;;;;;;;;;;31.68;63.39;100778.69;5012575;28;70566;-37
2021/10/30 09:05:10;;;;;;;;;;;;;;;31.69;63.63;100775.75;5007084;28;66329;-38
2021/10/30 09:07:50;;;;;;;;;;;;;;;31.73;63.83;100776.97;5012545;28;69386;-38
2021/10/30 09:10:22;;;;;;;;;;;;;;;31.75;64.04;100782.13;5011209;28;65903;-38
2021/10/30 09:12:54;;;;;;;;;;;;;;;31.78;64.05;100789.81;5008492;28;70183;-37
2021/10/30 09:15:31;;;;;;;;;;;;;;;31.81;64.44;100800.22;4996214;28;66498;-38
2021/10/30 09:18:02;;;;;;;;;;;;;;;31.82;64.45;100810.84;5014968;28;69297;-38
2021/10/30 09:20:34;;;;;;;;;;;;;;;31.85;64.66;100814.97;5013801;28;66688;-38
2021/10/30 09:23:10;;;;;;;;;;;;;;;31.86;64.69;100824.78;5014451;28;69940;-38
2021/10/30 09:25:59;;;;;;;;;;;;;;;31.89;64.99;100818.88;5010232;28;66453;-38
2021/10/30 09:28:36;;;;;;;;;;;;;;;31.92;64.91;100821.16;5010541;28;70042;-39
2021/10/30 09:31:11;;;;;;;;;;;;;;;31.92;65.02;100834.72;5008129;28;66504;-40
2021/10/30 09:33:51;;;;;;;;;;;;;;;31.92;65.09;100840.16;4998506;28;70781;-39
2021/10/30 09:36:32;;;;;;;;;;;;;;;31.94;64.81;100843.47;5008878;28;66321;-37
2021/10/30 09:39:06;;;;;;;;;;;;;;;31.94;64.76;100843.47;5014564;28;70408;-38
2021/10/30 09:41:38;;;;;;;;;;;;;;;31.95;65.09;100866.81;5010091;28;66433;-38
2021/10/30 09:44:11;;;;;;;;;;;;;;;31.94;64.59;100870.59;5012972;28;70414;-38
2021/10/30 09:46:44;;;;;;;;;;;;;;;31.91;64.39;100865.63;5014118;28;66116;-38
2021/10/30 09:49:16;;;;;;;;;;;;;;;31.92;64.36;100872.72;5013228;28;69438;-38
2021/10/30 09:51:47;;;;;;;;;;;;;;;31.89;64.40;100862.28;5007946;28;66426;-38
2021/10/30 09:54:34;;;;;;;;;;;;;;;31.90;64.34;100869.38;5008655;28;70157;-38
2021/10/30 09:57:06;;;;;;;;;;;;;;;31.91;64.09;100876.50;5006714;28;65601;-38
2021/10/30 09:59:39;;;;;;;;;;;;;;;31.90;63.72;100880.25;5011795;28;70420;-38
2021/10/30 10:02:10;;;;;;;;;;;;;;;31.90;63.83;100885.66;5010359;28;66318;-38
2021/10/30 10:04:40;;;;;;;;;;;;;;;31.92;63.46;100874.59;5012478;28;70281;-38
2021/10/30 10:07:11;;;;;;;;;;;;;;;31.88;63.17;100882.34;5010169;28;65249;-39
2021/10/30 10:09:42;;;;;;;;;;;;;;;31.87;62.35;100880.66;5012181;28;71116;-39
2021/10/30 10:12:13;;;;;;;;;;;;;;;31.85;62.20;100877.38;5023551;28;67134;-38
2021/10/30 10:14:46;;;;;;;;;;;;;;;31.83;62.28;100877.59;5023788;28;70393;-37
2021/10/30 10:17:19;;;;;;;;;;;;;;;31.81;62.18;100870.72;5005402;28;66931;-37
2021/10/30 10:19:50;;;;;;;;;;;;;;;31.81;62.27;100878.88;5016227;28;69133;-38
2021/10/30 10:22:20;;;;;;;;;;;;;;;31.80;62.08;100885.34;5018022;28;66701;-38
2021/10/30 10:24:50;;;;;;;;;;;;;;;31.78;62.08;100890.16;5014207;28;69871;-38
2021/10/30 10:27:35;;;;;;;;;;;;;;;31.77;62.13;100902.09;5024922;28;66088;-39
2021/10/30 10:30:07;;;;;;;;;;;;;;;31.43;62.27;100858.25;5015412;28;70478;-38
2021/10/30 10:32:37;;;;;;;;;;;;;;;31.69;61.58;100905.09;5021545;28;66514;-38
2021/10/30 10:35:14;;;;;;;;;;;;;;;31.72;61.75;100926.34;5022101;28;69672;-38
2021/10/30 10:37:48;;;;;;;;;;;;;;;31.70;61.86;100928.44;5025922;28;66722;-38
2021/10/30 10:40:32;;;;;;;;;;;;;;;31.68;62.22;100935.97;5021115;28;69946;-38
2021/10/30 10:43:02;;;;;;;;;;;;;;;31.68;62.19;100935.97;5017395;28;65674;-38
2021/10/30 10:45:49;;;;;;;;;;;;;;;31.67;62.26;100945.16;5014404;28;69290;-38
2021/10/30 10:48:23;;;;;;;;;;;;;;;31.64;62.64;100938.31;5011697;28;66575;-38
2021/10/30 10:50:53;;;;;;;;;;;;;;;31.60;62.49;100951.50;5018779;28;70225;-38
2021/10/30 10:53:25;;;;;;;;;;;;;;;31.63;62.56;100943.97;5014250;28;67821;-38
2021/10/30 10:55:56;;;;;;;;;;;;;;;31.58;62.75;100948.16;5014218;28;70419;-38
2021/10/30 10:58:26;;;;;;;;;;;;;;;31.59;63.32;100952.56;5011287;28;66222;-38
2021/10/30 11:01:14;;;;;;;;;;;;;;;31.58;63.52;100953.59;5015316;28;70559;-38
2021/10/30 11:03:46;;;;;;;;;;;;;;;31.56;63.39;100950.25;5014929;28;66554;-38
2021/10/30 11:06:30;;;;;;;;;;;;;;;31.57;64.02;100951.13;5011533;28;70386;-38
2021/10/30 11:09:11;;;;;;;;;;;;;;;31.56;63.95;100950.25;5014752;28;65687;-38
2021/10/30 11:11:41;;;;;;;;;;;;;;;31.57;63.87;100951.94;5015882;28;70231;-38
2021/10/30 11:14:13;;;;;;;;;;;;;;;31.53;64.05;100958.84;5009873;28;66383;-38
2021/10/30 11:16:45;;;;;;;;;;;;;;;31.53;63.77;100966.97;5012837;28;69834;-39
2021/10/30 11:19:29;;;;;;;;;;;;;;;31.51;64.36;100979.94;5023013;28;65743;-38
2021/10/30 11:22:10;;;;;;;;;;;;;;;31.53;63.97;100983.25;5017060;28;70469;-37
2021/10/30 11:24:51;;;;;;;;;;;;;;;31.47;63.67;100973.28;5010744;28;66802;-38
2021/10/30 11:27:22;;;;;;;;;;;;;;;31.47;64.09;100978.72;5009769;28;69942;-38
2021/10/30 11:29:53;;;;;;;;;;;;;;;31.46;63.39;100982.50;5011785;28;65656;-38
2021/10/30 11:32:23;;;;;;;;;;;;;;;31.42;63.74;100978.53;5012513;28;70247;-39
2021/10/30 11:35:00;;;;;;;;;;;;;;;31.42;64.09;100989.38;5011966;28;66578;-38
2021/10/30 11:37:38;;;;;;;;;;;;;;;31.41;63.95;101001.28;5009654;28;69243;-39
2021/10/30 11:40:09;;;;;;;;;;;;;;;31.38;64.07;100990.91;5009737;28;65719;-38
2021/10/30 11:42:43;;;;;;;;;;;;;;;31.41;63.90;101000.47;5016790;28;70042;-38
2021/10/30 11:45:14;;;;;;;;;;;;;;;31.38;64.34;101004.44;4999348;28;67042;-38
2021/10/30 11:47:51;;;;;;;;;;;;;;;31.37;64.96;101010.91;5011296;28;70450;-39
2021/10/30 11:50:21;;;;;;;;;;;;;;;31.35;64.75;101013.00;5013312;28;66439;-38
2021/10/30 11:52:56;;;;;;;;;;;;;;;31.36;64.50;101020.09;5009230;28;70054;-38
2021/10/30 11:55:28;;;;;;;;;;;;;;;31.36;64.75;101010.06;5015677;28;66500;-39
2021/10/30 11:58:08;;;;;;;;;;;;;;;31.34;65.28;101012.16;5020476;28;70403;-38
2021/10/30 12:00:42;;;;;;;;;;;;;;;31.36;65.34;101003.84;5016055;28;66404;-37
2021/10/30 12:03:13;;;;;;;;;;;;;;;31.30;65.24;101012.81;5008604;28;70162;-37
2021/10/30 12:05:43;;;;;;;;;;;;;;;31.34;65.20;101031.16;4991420;28;65772;-36
2021/10/30 12:08:14;;;;;;;;;;;;;;;31.35;65.91;101034.69;5015252;28;69831;-37
2021/10/30 12:11:05;;;;;;;;;;;;;;;31.34;66.14;101038.41;5013141;28;66747;-37
2021/10/30 12:13:35;;;;;;;;;;;;;;;31.34;66.01;101043.84;5010237;28;70172;-37
2021/10/30 12:16:06;;;;;;;;;;;;;;;31.31;66.17;101049.69;5007728;28;66270;-38
2021/10/30 12:18:36;;;;;;;;;;;;;;;31.29;66.58;101027.44;5010240;28;70899;-37
2021/10/30 12:21:12;;;;;;;;;;;;;;;31.24;66.94;101032.69;5012649;28;65855;-37
2021/10/30 12:23:55;;;;;;;;;;;;;;;31.21;67.56;101038.53;5008355;28;69353;-37
2021/10/30 12:26:26;;;;;;;;;;;;;;;31.14;68.14;101042.09;5009033;28;66271;-37
2021/10/30 12:29:15;;;;;;;;;;;;;;;31.12;68.58;101041.50;5011999;28;69827;-37
2021/10/30 12:32:01;;;;;;;;;;;;;;;31.07;68.88;101044.03;5011496;28;66599;-37
2021/10/30 12:34:35;;;;;;;;;;;;;;;31.07;68.56;101043.22;5010616;28;70659;-38
2021/10/30 12:37:10;;;;;;;;;;;;;;;31.02;68.52;101054.69;5023797;28;66668;-38
2021/10/30 12:39:54;;;;;;;;;;;;;;;30.99;68.65;101062.44;5007196;28;69587;-38
2021/10/30 12:42:27;;;;;;;;;;;;;;;30.95;69.20;101072.84;5010619;28;66098;-38
2021/10/30 12:44:58;;;;;;;;;;;;;;;30.94;68.34;101093.69;5006843;28;69540;-38
2021/10/30 12:47:32;;;;;;;;;;;;;;;30.93;69.17;101097.47;5012985;28;59610;-38
2021/10/30 12:50:09;;;;;;;;;;;;;;;30.93;68.89;101102.06;5017841;28;69482;-37
2021/10/30 12:52:41;;;;;;;;;;;;;;;30.88;68.91;101096.44;5009878;28;65707;-37
2021/10/30 12:55:13;;;;;;;;;;;;;;;30.94;69.45;101109.13;5011285;28;70338;-37
2021/10/30 12:58:03;;;;;;;;;;;;;;;30.61;68.77;101091.09;5011321;28;65468;-38
2021/10/30 13:00:41;;;;;;;;;;;;;;;30.62;67.50;101122.56;5010549;28;70444;-39
2021/10/30 13:03:17;;;;;;;;;;;;;;;30.54;67.14;101117.38;5005467;28;66399;-39
2021/10/30 13:05:48;;;;;;;;;;;;;;;30.47;66.59;101116.53;5006031;28;70012;-39
2021/10/30 13:08:20;;;;;;;;;;;;;;;30.37;66.29;101125.09;5004135;28;66592;-39
2021/10/30 13:10:53;;;;;;;;;;;;;;;30.32;66.36;101129.50;5007386;28;69913;-38
2021/10/30 13:13:30;;;;;;;;;;;;;;;30.23;65.86;101128.88;5009475;28;66897;-39
2021/10/30 13:16:08;;;;;;;;;;;;;;;30.16;65.39;101139.66;5006052;28;69368;-38
2021/10/30 13:18:38;;;;;;;;;;;;;;;30.12;66.32;101133.03;5012577;28;65549;-39
2021/10/30 13:21:20;;;;;;;;;;;;;;;30.08;66.04;101142.56;5013674;28;69286;-39
2021/10/30 13:23:55;;;;;;;;;;;;;;;30.01;66.00;101142.59;4997694;28;66298;-39
2021/10/30 13:26:28;;;;;;;;;;;;;;;29.98;65.86;101147.59;5013229;28;70089;-39
2021/10/30 13:29:01;;;;;;;;;;;;;;;29.91;66.47;101152.97;4989632;28;66239;-38
2021/10/30 13:31:34;;;;;;;;;;;;;;;29.83;66.33;101162.13;5013190;28;70331;-38
2021/10/30 13:34:05;;;;;;;;;;;;;;;29.82;66.60;101170.47;5016065;28;66562;-38
2021/10/30 13:36:38;;;;;;;;;;;;;;;29.76;66.50;101172.13;5012438;28;70617;-38
2021/10/30 13:39:09;;;;;;;;;;;;;;;29.73;66.05;101161.72;5013699;28;67140;-38
2021/10/30 13:41:42;;;;;;;;;;;;;;;29.69;65.96;101160.44;5011404;28;69403;-38
2021/10/30 13:44:20;;;;;;;;;;;;;;;29.63;66.17;101161.28;5012069;28;66279;-37
2021/10/30 13:46:50;;;;;;;;;;;;;;;29.58;65.64;101161.00;5013633;28;68640;-37
2021/10/30 13:49:22;;;;;;;;;;;;;;;29.55;65.74;101169.53;5013258;28;65763;-36
2021/10/30 13:51:55;;;;;;;;;;;;;;;29.50;65.33;101166.63;5011286;28;69159;-37
2021/10/30 13:54:26;;;;;;;;;;;;;;;29.45;65.12;101169.94;4993497;28;65315;-38
2021/10/30 13:57:00;;;;;;;;;;;;;;;29.40;65.05;101169.72;5015502;28;70099;-41
2021/10/30 13:59:42;;;;;;;;;;;;;;;29.36;65.06;101173.84;5016492;28;66627;-37
2021/10/30 14:02:17;;;;;;;;;;;;;;;29.34;64.76;101168.66;5009890;28;69419;-37
2021/10/30 14:04:49;;;;;;;;;;;;;;;29.32;64.40;101181.53;4983965;28;65404;-37
2021/10/30 14:07:22;;;;;;;;;;;;;;;29.27;64.56;101177.78;5004216;28;70231;-40
2021/10/30 14:09:55;;;;;;;;;;;;;;;29.25;64.27;101185.25;5016464;28;66976;-38
2021/10/30 14:12:27;;;;;;;;;;;;;;;29.22;63.88;101194.56;5020727;28;70166;-37
2021/10/30 14:15:01;;;;;;;;;;;;;;;29.20;64.85;101193.13;5016228;28;66419;-38
2021/10/30 14:17:34;;;;;;;;;;;;;;;29.19;64.02;101186.88;5005854;28;70125;-38
2021/10/30 14:20:06;;;;;;;;;;;;;;;29.16;64.17;101188.13;5019594;28;66129;-37
2021/10/30 14:22:40;;;;;;;;;;;;;;;29.13;64.19;101195.78;5020306;28;68827;-38
2021/10/30 14:25:11;;;;;;;;;;;;;;;29.12;63.37;101183.34;5019745;28;66675;-37
2021/10/30 14:27:43;;;;;;;;;;;;;;;29.08;63.75;101191.00;5013297;28;69935;-37
2021/10/30 14:30:15;;;;;;;;;;;;;;;29.05;63.75;101185.16;5015731;28;66300;-37
2021/10/30 14:32:49;;;;;;;;;;;;;;;29.05;63.21;101185.16;5015434;28;70467;-37
2021/10/30 14:35:20;;;;;;;;;;;;;;;29.02;62.88;101189.06;5016660;28;66134;-38
2021/10/30 14:37:51;;;;;;;;;;;;;;;29.00;62.96;101187.59;5017158;28;70085;-38
2021/10/30 14:40:21;;;;;;;;;;;;;;;28.98;62.52;101178.88;5018933;28;67589;-38
2021/10/30 14:42:57;;;;;;;;;;;;;;;28.98;62.67;101184.28;5011847;28;70263;-37
2021/10/30 14:45:28;;;;;;;;;;;;;;;28.93;62.09;101183.00;5019804;28;66142;-38
2021/10/30 14:47:59;;;;;;;;;;;;;;;28.93;62.09;101191.09;5013721;28;69204;-37
2021/10/30 14:50:29;;;;;;;;;;;;;;;28.91;62.12;101193.16;5021931;28;65814;-37
2021/10/30 14:53:00;;;;;;;;;;;;;;;28.91;62.08;101198.56;5018634;28;71136;-38
2021/10/30 14:55:31;;;;;;;;;;;;;;;28.87;61.95;101194.59;5018180;28;66543;-37
2021/10/30 14:58:02;;;;;;;;;;;;;;;28.84;61.88;101203.09;5018802;28;71304;-37
2021/10/30 15:00:32;;;;;;;;;;;;;;;28.82;61.37;101199.75;5019592;28;66702;-36
2021/10/30 15:03:04;;;;;;;;;;;;;;;28.80;60.93;101191.03;5018710;28;71687;-38
2021/10/30 15:05:35;;;;;;;;;;;;;;;28.83;61.69;101192.50;5019837;28;66822;-38
2021/10/30 15:08:06;;;;;;;;;;;;;;;28.76;60.89;101189.75;5019102;28;69908;-37
2021/10/30 15:10:37;;;;;;;;;;;;;;;28.79;60.74;101192.06;5017046;28;66912;-37
2021/10/30 15:13:07;;;;;;;;;;;;;;;28.78;60.51;101195.81;5018318;28;69819;-37
2021/10/30 15:15:38;;;;;;;;;;;;;;;28.75;60.89;101188.06;5018443;28;66433;-38
2021/10/30 15:18:09;;;;;;;;;;;;;;;28.74;60.62;101195.34;5015938;28;70495;-38
2021/10/30 15:20:39;;;;;;;;;;;;;;;28.75;60.57;101206.97;5019542;28;66249;-36